Time;durP1;ratioP1;P1;durP2;ratioP2;P2;SDS_P1;SDS_P2;PMS_P1;PMS_P2;Temp;Humidity;BMP_temperature;BMP_pressure;BME280_temperature;BME280_humidity;BME280_pressure;Samples;Min_cycle;Max_cycle;Signal;HPM_P1;HPM_P2
2022/06/19 00:00:56;;;;;;;10.03;4.10;;;21.30;99.90;;;;;;5009168;28;20706;-81
2022/06/19 00:03:27;;;;;;;11.00;3.90;;;21.40;99.90;;;;;;5006808;28;21084;-81
2022/06/19 00:05:54;;;;;;;13.20;4.73;;;21.30;99.90;;;;;;5004803;28;21335;-81
2022/06/19 00:08:21;;;;;;;11.00;4.03;;;21.30;99.90;;;;;;5004579;28;20642;-81
2022/06/19 00:10:49;;;;;;;6.30;3.77;;;21.10;99.90;;;;;;5006956;28;20662;-81
2022/06/19 00:13:16;;;;;;;10.63;4.20;;;21.10;99.90;;;;;;5001724;28;21198;-81
2022/06/19 00:15:43;;;;;;;7.60;4.50;;;21.20;99.90;;;;;;5005749;28;20632;-82
2022/06/19 00:18:10;;;;;;;14.13;4.53;;;21.10;99.90;;;;;;5001053;28;20642;-81
2022/06/19 00:20:38;;;;;;;11.80;4.27;;;21.10;99.90;;;;;;5005813;28;20656;-81
2022/06/19 00:23:04;;;;;;;8.93;3.70;;;21.20;99.90;;;;;;5005007;28;22349;-81
2022/06/19 00:25:31;;;;;;;6.80;3.87;;;21.10;99.90;;;;;;5004100;28;20632;-81
2022/06/19 00:28:00;;;;;;;8.43;3.83;;;21.10;99.90;;;;;;5004824;28;20634;-81
2022/06/19 00:30:27;;;;;;;10.63;4.00;;;21.00;99.90;;;;;;5007081;28;20695;-81
2022/06/19 00:32:53;;;;;;;12.53;3.80;;;21.00;99.90;;;;;;5004484;28;20632;-82
2022/06/19 00:35:21;;;;;;;7.90;3.80;;;21.00;99.90;;;;;;5006049;28;20644;-81
2022/06/19 00:37:48;;;;;;;13.70;3.97;;;21.00;99.90;;;;;;5007807;28;20611;-81
2022/06/19 00:40:15;;;;;;;10.03;3.93;;;21.00;99.90;;;;;;5005111;28;20664;-81
2022/06/19 00:42:42;;;;;;;12.97;3.90;;;21.00;99.90;;;;;;5006007;28;20628;-81
2022/06/19 00:45:32;;;;;;;6.83;3.30;;;21.00;99.90;;;;;;5007407;28;20671;-81
2022/06/19 00:48:02;;;;;;;7.47;3.33;;;20.90;99.90;;;;;;5003550;28;21225;-81
2022/06/19 00:50:32;;;;;;;7.40;3.07;;;20.90;99.90;;;;;;5006428;28;20658;-81
2022/06/19 00:53:00;;;;;;;9.10;3.83;;;20.90;99.90;;;;;;5002514;28;20624;-81
2022/06/19 00:55:31;;;;;;;9.47;3.00;;;20.90;99.90;;;;;;5004466;28;20635;-81
2022/06/19 00:58:03;;;;;;;6.43;3.63;;;20.90;99.90;;;;;;5001818;28;20985;-82
2022/06/19 01:00:32;;;;;;;8.07;4.00;;;20.80;99.90;;;;;;5004327;28;20652;-81
2022/06/19 01:03:02;;;;;;;7.13;3.33;;;20.80;99.90;;;;;;5004698;28;20642;-82
2022/06/19 01:05:30;;;;;;;5.10;3.10;;;20.80;99.90;;;;;;5006112;28;21224;-81
2022/06/19 01:07:58;;;;;;;5.50;3.30;;;20.70;99.90;;;;;;5004546;28;20694;-82
2022/06/19 01:10:25;;;;;;;9.37;3.97;;;20.70;99.90;;;;;;5005687;28;20654;-81
2022/06/19 01:12:52;;;;;;;6.27;3.67;;;20.70;99.90;;;;;;5005625;28;20645;-82
2022/06/19 01:15:22;;;;;;;5.10;2.90;;;20.70;99.90;;;;;;5008764;28;20627;-82
2022/06/19 01:17:54;;;;;;;8.43;4.00;;;20.70;99.90;;;;;;5007571;28;20627;-81
2022/06/19 01:20:23;;;;;;;9.00;4.00;;;20.60;99.90;;;;;;5008290;28;20662;-82
2022/06/19 01:22:57;;;;;;;7.50;2.80;;;20.60;99.90;;;;;;5006357;28;21177;-81
2022/06/19 01:25:30;;;;;;;8.10;3.90;;;20.60;99.90;;;;;;5007575;28;20638;-81
2022/06/19 01:30:47;;;;;;;11.80;3.47;;;20.60;99.90;;;;;;5004615;28;20638;-81
2022/06/19 01:33:19;;;;;;;8.90;3.83;;;20.50;99.90;;;;;;5003628;28;20682;-81
2022/06/19 01:35:50;;;;;;;5.20;3.50;;;20.50;99.90;;;;;;5003386;28;21431;-81
2022/06/19 01:38:20;;;;;;;6.77;3.47;;;20.50;99.90;;;;;;5006177;28;20796;-81
2022/06/19 01:40:52;;;;;;;11.33;4.57;;;20.50;99.90;;;;;;5003238;28;20663;-82
2022/06/19 01:43:20;;;;;;;5.97;3.70;;;20.40;99.90;;;;;;5001574;28;20696;-81
2022/06/19 01:45:52;;;;;;;15.13;4.20;;;20.40;99.90;;;;;;5006770;28;20976;-82
2022/06/19 01:48:20;;;;;;;5.73;3.60;;;20.40;99.90;;;;;;5007197;28;20611;-82
2022/06/19 01:50:47;;;;;;;6.70;2.83;;;20.40;99.90;;;;;;5011413;28;20701;-82
2022/06/19 01:53:18;;;;;;;10.73;3.50;;;20.40;99.90;;;;;;5008367;28;20642;-82
2022/06/19 01:55:45;;;;;;;9.80;4.20;;;20.40;99.90;;;;;;5006498;28;20611;-82
2022/06/19 01:58:14;;;;;;;7.97;2.83;;;20.30;99.90;;;;;;5007142;28;20639;-82
2022/06/19 02:00:43;;;;;;;11.40;4.20;;;20.40;99.90;;;;;;5008913;28;20650;-81
2022/06/19 02:03:15;;;;;;;12.30;3.53;;;20.30;99.90;;;;;;5009822;28;20634;-82
2022/06/19 02:05:42;;;;;;;12.13;3.23;;;20.30;99.90;;;;;;5010961;28;21172;-81
2022/06/19 02:08:11;;;;;;;9.20;3.53;;;20.20;99.90;;;;;;5014500;28;20674;-81
2022/06/19 02:10:40;;;;;;;6.20;2.70;;;20.20;99.90;;;;;;5014798;28;20670;-82
2022/06/19 02:13:10;;;;;;;9.07;3.80;;;20.20;99.90;;;;;;5011256;28;20638;-82
2022/06/19 02:15:39;;;;;;;11.20;4.50;;;20.20;99.90;;;;;;5016438;28;20634;-82
2022/06/19 02:18:08;;;;;;;7.10;3.40;;;20.20;99.90;;;;;;5014967;28;21421;-82
2022/06/19 02:20:35;;;;;;;8.50;3.87;;;20.10;99.90;;;;;;5017629;28;20650;-82
2022/06/19 02:23:05;;;;;;;8.43;3.27;;;20.10;99.90;;;;;;5017444;28;20654;-82
2022/06/19 02:25:33;;;;;;;7.70;3.27;;;20.10;99.90;;;;;;5014138;28;20661;-82
2022/06/19 02:28:02;;;;;;;7.73;2.80;;;20.10;99.90;;;;;;5014832;28;20678;-82
2022/06/19 02:30:30;;;;;;;7.43;3.50;;;20.10;99.90;;;;;;5015068;28;20746;-81
2022/06/19 02:32:59;;;;;;;8.20;3.67;;;20.00;99.90;;;;;;5012171;28;20639;-81
2022/06/19 02:35:26;;;;;;;10.43;3.83;;;20.00;99.90;;;;;;5013429;28;21043;-82
2022/06/19 02:37:57;;;;;;;10.30;3.67;;;20.00;99.90;;;;;;5007417;28;20663;-81
2022/06/19 02:40:37;;;;;;;16.20;3.57;;;19.90;99.90;;;;;;5008187;28;20659;-81
2022/06/19 02:43:11;;;;;;;6.50;4.60;;;19.90;99.90;;;;;;5014345;28;20652;-81
2022/06/19 02:45:39;;;;;;;8.47;3.57;;;19.80;99.90;;;;;;5007343;28;20628;-81
2022/06/19 02:48:19;;;;;;;9.43;3.50;;;19.80;99.90;;;;;;5009910;28;20659;-81
2022/06/19 02:50:46;;;;;;;12.00;4.93;;;19.80;99.90;;;;;;5012366;28;20678;-82
2022/06/19 02:53:13;;;;;;;5.97;2.97;;;19.80;99.90;;;;;;5006531;28;20642;-81
2022/06/19 02:55:40;;;;;;;8.20;3.40;;;19.80;99.90;;;;;;5011758;28;20631;-82
2022/06/19 02:58:07;;;;;;;7.97;3.37;;;19.80;99.90;;;;;;5012539;28;20635;-81
2022/06/19 03:00:34;;;;;;;9.63;3.30;;;19.80;99.90;;;;;;5013071;28;21034;-81
2022/06/19 03:03:05;;;;;;;8.87;3.00;;;19.70;99.90;;;;;;5013146;28;20626;-81
2022/06/19 03:05:34;;;;;;;12.27;3.70;;;19.70;99.90;;;;;;5014922;28;20650;-81
2022/06/19 03:08:01;;;;;;;7.70;3.73;;;19.70;99.90;;;;;;5012042;28;20665;-81
2022/06/19 03:10:30;;;;;;;8.70;4.20;;;19.70;99.90;;;;;;5017009;28;20663;-81
2022/06/19 03:12:57;;;;;;;11.27;3.90;;;19.70;99.90;;;;;;5008802;28;21096;-81
2022/06/19 03:15:24;;;;;;;9.20;4.40;;;19.70;99.90;;;;;;5013617;28;20667;-81
2022/06/19 03:17:51;;;;;;;5.10;3.50;;;19.70;99.90;;;;;;5014673;28;20620;-81
2022/06/19 03:20:21;;;;;;;5.83;3.00;;;19.70;99.90;;;;;;5010924;28;20655;-80
2022/06/19 03:22:49;;;;;;;13.70;3.90;;;19.60;99.90;;;;;;5005486;28;21225;-81
2022/06/19 03:25:16;;;;;;;13.43;4.10;;;19.70;99.90;;;;;;5012237;28;20631;-81
2022/06/19 03:27:44;;;;;;;10.90;4.53;;;19.70;99.90;;;;;;5012685;28;20663;-82
2022/06/19 03:30:12;;;;;;;7.33;3.50;;;19.70;99.90;;;;;;5010540;28;21267;-81
2022/06/19 03:32:40;;;;;;;9.03;3.90;;;19.70;99.90;;;;;;5014276;28;20638;-81
2022/06/19 03:35:07;;;;;;;10.70;3.57;;;19.70;99.90;;;;;;5017043;28;20630;-81
2022/06/19 03:37:34;;;;;;;11.30;3.33;;;19.70;99.90;;;;;;5014682;28;20638;-81
2022/06/19 03:40:03;;;;;;;11.20;4.10;;;19.70;99.90;;;;;;5011956;28;21185;-81
2022/06/19 03:42:30;;;;;;;6.07;4.13;;;19.70;99.90;;;;;;5015811;28;20639;-81
2022/06/19 03:44:57;;;;;;;8.23;3.20;;;19.70;99.90;;;;;;5010403;28;20647;-81
2022/06/19 03:47:26;;;;;;;12.43;4.60;;;19.70;99.90;;;;;;5012116;28;21104;-82
2022/06/19 03:49:53;;;;;;;10.27;4.00;;;19.80;99.90;;;;;;5013551;28;20669;-82
2022/06/19 03:52:20;;;;;;;11.37;3.80;;;19.70;99.90;;;;;;5008071;28;20638;-81
2022/06/19 03:54:47;;;;;;;10.27;3.90;;;19.80;99.90;;;;;;5012159;28;20647;-82
2022/06/19 03:57:15;;;;;;;6.90;3.93;;;19.80;99.90;;;;;;4996840;28;20674;-82
2022/06/19 03:59:42;;;;;;;8.97;3.30;;;19.80;99.90;;;;;;5005532;28;20654;-82
2022/06/19 04:02:10;;;;;;;8.50;4.27;;;19.80;99.90;;;;;;5012061;28;20634;-82
2022/06/19 04:04:39;;;;;;;10.90;4.23;;;19.80;99.90;;;;;;5009285;28;20635;-81
2022/06/19 04:07:08;;;;;;;10.40;3.20;;;19.80;99.90;;;;;;5012349;28;20721;-82
2022/06/19 04:09:35;;;;;;;6.53;3.80;;;19.90;99.90;;;;;;5007777;28;21348;-81
2022/06/19 04:12:02;;;;;;;10.20;4.27;;;19.90;99.90;;;;;;5001232;28;20683;-82
2022/06/19 04:14:30;;;;;;;7.40;3.50;;;19.90;99.90;;;;;;5005378;28;20632;-81
2022/06/19 04:16:57;;;;;;;7.47;4.07;;;20.00;99.90;;;;;;5011359;28;20636;-81
2022/06/19 04:19:24;;;;;;;4.50;3.53;;;20.00;99.90;;;;;;5012078;28;20997;-82
2022/06/19 04:21:51;;;;;;;9.90;3.80;;;20.10;99.90;;;;;;5013726;28;20651;-81
2022/06/19 04:24:19;;;;;;;10.30;3.57;;;20.00;99.90;;;;;;5011665;28;20699;-81
2022/06/19 04:26:47;;;;;;;9.97;3.83;;;20.10;99.90;;;;;;5010675;28;20672;-81
2022/06/19 04:29:14;;;;;;;7.50;3.47;;;20.20;99.90;;;;;;5009259;28;21384;-81
2022/06/19 04:31:43;;;;;;;8.57;3.63;;;20.20;99.90;;;;;;5007620;28;20635;-81
2022/06/19 04:34:10;;;;;;;9.93;4.43;;;20.30;99.90;;;;;;5010415;28;20634;-81
2022/06/19 04:36:38;;;;;;;7.27;3.60;;;20.40;99.90;;;;;;5013903;28;20654;-81
2022/06/19 04:39:05;;;;;;;10.53;4.33;;;20.40;99.90;;;;;;5011263;28;20757;-81
2022/06/19 04:41:36;;;;;;;7.27;4.27;;;20.50;99.90;;;;;;5015172;28;20658;-81
2022/06/19 04:44:04;;;;;;;11.50;4.33;;;20.60;99.90;;;;;;5008055;28;20627;-81
2022/06/19 04:46:31;;;;;;;10.23;4.40;;;20.70;99.90;;;;;;5006452;28;20719;-81
2022/06/19 04:49:00;;;;;;;9.10;3.87;;;20.80;99.90;;;;;;5001896;28;20632;-81
2022/06/19 04:51:26;;;;;;;8.20;3.97;;;20.90;99.90;;;;;;5008452;28;20691;-81
2022/06/19 04:53:54;;;;;;;10.00;3.90;;;21.00;99.90;;;;;;5005297;28;20639;-81
2022/06/19 04:56:22;;;;;;;11.10;4.60;;;21.10;99.90;;;;;;5004073;28;20667;-81
2022/06/19 04:58:49;;;;;;;8.60;3.73;;;21.20;99.90;;;;;;5004642;28;20663;-81
2022/06/19 05:01:24;;;;;;;13.87;4.57;;;21.30;99.90;;;;;;5011785;28;21480;-81
2022/06/19 05:03:53;;;;;;;12.87;3.53;;;21.40;99.90;;;;;;5009568;28;20696;-81
2022/06/19 05:06:21;;;;;;;14.80;4.13;;;21.50;99.90;;;;;;5008822;28;21305;-81
2022/06/19 05:08:48;;;;;;;7.00;3.97;;;21.60;99.90;;;;;;5010453;28;21437;-81
2022/06/19 05:11:16;;;;;;;12.37;4.60;;;21.70;99.90;;;;;;5004136;28;20652;-81
2022/06/19 05:13:43;;;;;;;12.00;4.77;;;21.80;99.90;;;;;;5006333;28;21018;-81
2022/06/19 05:16:13;;;;;;;13.67;3.73;;;21.90;99.90;;;;;;5006465;28;21282;-81
2022/06/19 05:18:41;;;;;;;4.90;3.70;;;21.90;99.90;;;;;;5002291;28;20671;-81
2022/06/19 05:21:08;;;;;;;6.50;4.00;;;22.10;99.90;;;;;;5005568;28;20666;-82
2022/06/19 05:23:39;;;;;;;10.20;5.50;;;22.20;99.90;;;;;;5013452;28;20999;-82
2022/06/19 05:26:08;;;;;;;10.17;4.53;;;22.20;99.90;;;;;;5011130;28;20626;-81
2022/06/19 05:28:36;;;;;;;8.50;3.60;;;22.30;99.90;;;;;;5012824;28;20639;-82
2022/06/19 05:31:03;;;;;;;12.53;5.33;;;22.30;99.90;;;;;;5009471;28;20655;-82
2022/06/19 05:33:32;;;;;;;9.10;3.90;;;22.40;99.90;;;;;;5012062;28;21187;-81
2022/06/19 05:35:59;;;;;;;13.40;4.80;;;22.50;99.90;;;;;;5012060;28;21190;-81
2022/06/19 05:38:26;;;;;;;13.83;4.50;;;22.40;99.90;;;;;;5008984;28;20659;-81
2022/06/19 05:40:56;;;;;;;10.07;5.00;;;22.50;99.90;;;;;;5015172;28;21238;-81
2022/06/19 05:43:24;;;;;;;7.60;3.63;;;22.50;99.90;;;;;;5009293;28;20619;-82
2022/06/19 05:45:52;;;;;;;8.13;3.83;;;22.60;99.90;;;;;;5012756;28;20632;-81
2022/06/19 05:48:19;;;;;;;10.37;5.13;;;22.70;99.90;;;;;;5013139;28;20634;-81
2022/06/19 05:50:56;;;;;;;12.60;4.40;;;22.80;99.90;;;;;;5020502;28;20654;-81
2022/06/19 05:53:23;;;;;;;13.30;5.57;;;23.00;99.90;;;;;;5012920;28;20627;-81
2022/06/19 05:55:50;;;;;;;12.67;4.30;;;23.10;99.90;;;;;;5011141;28;20634;-81
2022/06/19 05:58:18;;;;;;;7.20;4.17;;;23.20;99.90;;;;;;5008006;28;20657;-82
2022/06/19 06:00:45;;;;;;;9.87;3.63;;;23.30;99.90;;;;;;5015092;28;20663;-82
2022/06/19 06:03:13;;;;;;;8.33;4.53;;;23.30;99.90;;;;;;5015806;28;20639;-82
2022/06/19 06:05:40;;;;;;;13.53;3.83;;;23.50;99.90;;;;;;5006408;28;20643;-82
2022/06/19 06:08:07;;;;;;;8.77;4.03;;;23.40;99.90;;;;;;5016329;28;20626;-82
2022/06/19 06:10:34;;;;;;;12.73;4.00;;;23.50;99.90;;;;;;5017121;28;20780;-81
2022/06/19 06:13:00;;;;;;;12.20;3.93;;;23.60;99.90;;;;;;5012006;28;20696;-81
2022/06/19 06:15:29;;;;;;;10.33;4.17;;;23.60;99.90;;;;;;5017670;28;20949;-81
2022/06/19 06:17:58;;;;;;;12.07;5.80;;;23.70;99.90;;;;;;5011273;28;21029;-80
2022/06/19 06:20:25;;;;;;;8.90;3.67;;;23.80;99.90;;;;;;5015872;28;20740;-81
2022/06/19 06:22:51;;;;;;;9.90;3.63;;;23.90;99.90;;;;;;5017560;28;21065;-81
2022/06/19 06:25:18;;;;;;;10.97;4.20;;;24.10;99.90;;;;;;5015666;28;20979;-81
2022/06/19 06:27:45;;;;;;;12.20;4.67;;;24.10;99.90;;;;;;5013074;28;20616;-81
2022/06/19 06:30:13;;;;;;;11.40;4.40;;;24.10;99.80;;;;;;5016024;28;20670;-80
2022/06/19 06:32:41;;;;;;;11.40;4.57;;;24.20;99.90;;;;;;5016128;28;20626;-81
2022/06/19 06:35:09;;;;;;;5.30;4.43;;;24.20;99.90;;;;;;5011123;28;20635;-80
2022/06/19 06:37:36;;;;;;;8.33;3.93;;;24.30;99.70;;;;;;5009051;28;20640;-81
2022/06/19 06:40:05;;;;;;;10.30;4.97;;;24.40;99.30;;;;;;5011630;28;20721;-81
2022/06/19 06:42:32;;;;;;;9.90;4.07;;;24.50;99.00;;;;;;5012454;28;20640;-81
2022/06/19 06:44:59;;;;;;;14.50;4.67;;;24.70;98.60;;;;;;5008559;28;20638;-81
2022/06/19 06:47:26;;;;;;;10.47;4.70;;;24.70;98.00;;;;;;5010233;28;21029;-80
2022/06/19 06:49:54;;;;;;;5.20;3.90;;;24.70;97.80;;;;;;5015247;28;21232;-81
2022/06/19 06:52:21;;;;;;;9.07;4.50;;;24.90;97.60;;;;;;5013509;28;20639;-81
2022/06/19 06:54:47;;;;;;;9.70;4.80;;;25.00;97.40;;;;;;5011595;28;20634;-80
2022/06/19 06:57:14;;;;;;;15.27;5.03;;;25.10;97.50;;;;;;5006161;28;20650;-80
2022/06/19 06:59:41;;;;;;;11.03;4.77;;;25.20;97.10;;;;;;5005462;28;20691;-80
2022/06/19 07:02:08;;;;;;;9.53;3.93;;;25.40;96.40;;;;;;5004424;28;20635;-80
2022/06/19 07:04:35;;;;;;;11.63;4.17;;;25.60;96.10;;;;;;5002633;28;20635;-81
2022/06/19 07:07:03;;;;;;;10.90;3.90;;;25.70;95.70;;;;;;5005192;28;20632;-80
2022/06/19 07:09:30;;;;;;;15.27;4.60;;;25.90;95.60;;;;;;5004470;28;20635;-80
2022/06/19 07:11:57;;;;;;;8.33;4.10;;;26.10;94.90;;;;;;5003219;28;20767;-83
2022/06/19 07:14:23;;;;;;;9.27;4.10;;;26.20;94.60;;;;;;5005210;28;20643;-80
2022/06/19 07:16:50;;;;;;;13.63;4.70;;;26.40;94.70;;;;;;5003411;28;20635;-81
2022/06/19 07:19:17;;;;;;;11.30;4.47;;;26.50;94.70;;;;;;5005113;28;20693;-80
2022/06/19 07:21:44;;;;;;;18.53;5.93;;;26.50;94.50;;;;;;5009542;28;20623;-80
2022/06/19 07:24:15;;;;;;;13.50;4.77;;;26.50;95.10;;;;;;5004076;28;20628;-80
2022/06/19 07:26:42;;;;;;;12.17;4.80;;;26.50;95.10;;;;;;5004808;28;20627;-83
2022/06/19 07:29:08;;;;;;;11.30;4.83;;;26.50;94.60;;;;;;5005722;28;20631;-79
2022/06/19 07:31:36;;;;;;;17.80;5.27;;;26.30;94.80;;;;;;5003503;28;20652;-82
2022/06/19 07:34:03;;;;;;;10.37;4.60;;;26.40;95.30;;;;;;5005663;28;20697;-81
2022/06/19 07:36:30;;;;;;;13.03;4.50;;;26.50;95.10;;;;;;5004852;28;20647;-83
2022/06/19 07:38:57;;;;;;;11.30;4.63;;;26.60;94.70;;;;;;5003617;28;20667;-80
2022/06/19 07:41:25;;;;;;;7.97;4.33;;;26.80;94.80;;;;;;5004552;28;20671;-80
2022/06/19 07:43:53;;;;;;;15.13;5.03;;;26.90;94.80;;;;;;5003215;28;20648;-80
2022/06/19 07:46:20;;;;;;;13.23;4.90;;;27.00;94.50;;;;;;5006537;28;20632;-81
2022/06/19 07:51:32;;;;;;;11.27;5.00;;;27.20;94.60;;;;;;5006775;28;20634;-80
2022/06/19 07:53:59;;;;;;;12.20;5.40;;;27.20;94.10;;;;;;5003360;28;20649;-83
2022/06/19 07:56:27;;;;;;;7.80;4.83;;;27.20;94.30;;;;;;5005944;28;21041;-80
2022/06/19 07:58:54;;;;;;;12.20;5.27;;;27.30;94.30;;;;;;5004831;28;20668;-80
2022/06/19 08:01:21;;;;;;;9.83;5.00;;;27.40;93.80;;;;;;5005505;28;20659;-81
2022/06/19 08:03:48;;;;;;;16.13;5.50;;;27.40;93.40;;;;;;5004713;28;20638;-80
2022/06/19 08:06:17;;;;;;;11.73;4.60;;;27.30;93.40;;;;;;5004492;28;21127;-81
2022/06/19 08:08:44;;;;;;;11.90;5.47;;;27.40;93.40;;;;;;5002839;28;20688;-82
2022/06/19 08:11:11;;;;;;;9.40;5.13;;;27.50;93.40;;;;;;5001824;28;20663;-80
2022/06/19 08:13:40;;;;;;;13.50;5.30;;;27.60;93.40;;;;;;5003763;28;20623;-80
2022/06/19 08:16:09;;;;;;;8.90;4.70;;;27.70;92.80;;;;;;4997916;28;20624;-80
2022/06/19 08:18:37;;;;;;;9.60;4.90;;;27.90;93.00;;;;;;5004253;28;20698;-80
2022/06/19 08:21:05;;;;;;;14.00;5.10;;;28.00;92.90;;;;;;5005156;28;21194;-82
2022/06/19 08:23:32;;;;;;;14.60;5.20;;;28.10;92.70;;;;;;5008360;28;20616;-81
2022/06/19 08:26:00;;;;;;;8.83;4.90;;;28.20;92.50;;;;;;5003832;28;20620;-81
2022/06/19 08:28:29;;;;;;;10.13;5.03;;;28.20;92.70;;;;;;5000559;28;20676;-82
2022/06/19 08:30:58;;;;;;;11.20;5.30;;;28.30;92.60;;;;;;5001516;28;21835;-82
2022/06/19 08:33:24;;;;;;;11.73;5.13;;;28.50;92.80;;;;;;5005380;28;20631;-81
2022/06/19 08:35:54;;;;;;;13.43;6.43;;;28.60;92.60;;;;;;5006738;28;20623;-82
2022/06/19 08:38:25;;;;;;;12.00;6.27;;;28.70;92.10;;;;;;5006383;28;21236;-82
2022/06/19 08:41:25;;;;;;;12.00;5.27;;;28.70;92.20;;;;;;5004156;28;20655;-82
2022/06/19 08:44:24;;;;;;;10.70;5.50;;;28.80;92.30;;;;;;5000671;28;21069;-82
2022/06/19 08:47:08;;;;;;;8.50;5.20;;;28.90;92.20;;;;;;5000092;28;20619;-82
2022/06/19 08:49:51;;;;;;;12.00;5.20;;;28.90;92.30;;;;;;5010214;28;20650;-81
2022/06/19 08:52:29;;;;;;;18.20;5.80;;;29.10;92.20;;;;;;5008237;28;21434;-82
2022/06/19 08:55:10;;;;;;;8.33;5.80;;;29.20;92.30;;;;;;5011790;28;20630;-82
2022/06/19 08:57:44;;;;;;;13.23;5.53;;;29.40;92.00;;;;;;5006959;28;20615;-82
2022/06/19 09:00:17;;;;;;;14.77;6.60;;;29.40;91.90;;;;;;5004377;28;20683;-81
2022/06/19 09:03:01;;;;;;;13.33;6.23;;;29.60;91.90;;;;;;5003163;28;21167;-82
2022/06/19 09:05:40;;;;;;;8.30;5.13;;;29.70;91.50;;;;;;5002873;28;20966;-83
2022/06/19 09:08:27;;;;;;;16.40;6.50;;;29.90;92.00;;;;;;5006813;28;21160;-82
2022/06/19 09:11:02;;;;;;;11.37;6.60;;;30.00;92.00;;;;;;5002786;28;20774;-82
2022/06/19 09:13:44;;;;;;;16.50;7.10;;;30.10;91.70;;;;;;5008469;28;20653;-82
2022/06/19 09:16:21;;;;;;;11.90;7.17;;;30.20;91.20;;;;;;5006755;28;20626;-82
2022/06/19 09:18:59;;;;;;;9.10;6.70;;;30.30;91.50;;;;;;5008413;28;21252;-82
2022/06/19 09:21:32;;;;;;;14.37;6.70;;;30.40;91.30;;;;;;5011922;28;20651;-82
2022/06/19 09:24:27;;;;;;;15.90;7.60;;;30.50;91.20;;;;;;5004176;28;20650;-82
2022/06/19 09:26:56;;;;;;;15.13;9.27;;;30.60;90.60;;;;;;5007486;28;21201;-82
2022/06/19 09:29:29;;;;;;;18.30;8.90;;;30.80;88.00;;;;;;5007980;28;20627;-82
2022/06/19 09:32:01;;;;;;;13.90;7.80;;;30.90;88.70;;;;;;5004534;28;20624;-82
2022/06/19 09:34:34;;;;;;;10.57;9.57;;;31.20;88.30;;;;;;5005746;28;20635;-82
2022/06/19 09:37:07;;;;;;;18.53;10.07;;;31.30;84.70;;;;;;5005375;28;20619;-82
2022/06/19 09:39:46;;;;;;;18.63;10.37;;;31.50;82.60;;;;;;5006409;28;20679;-82
2022/06/19 09:42:18;;;;;;;15.10;9.43;;;31.60;78.90;;;;;;5006727;28;20630;-82
2022/06/19 09:44:53;;;;;;;15.80;10.67;;;31.80;77.90;;;;;;5004154;28;20632;-82
2022/06/19 09:47:25;;;;;;;13.63;9.17;;;32.00;66.70;;;;;;5007885;28;20635;-82
2022/06/19 09:49:58;;;;;;;12.27;9.27;;;32.20;63.30;;;;;;5007890;28;20655;-82
2022/06/19 09:52:31;;;;;;;15.50;9.53;;;32.30;60.60;;;;;;5009143;28;21364;-82
2022/06/19 09:55:07;;;;;;;25.67;9.70;;;32.40;60.50;;;;;;5007715;28;20622;-82
2022/06/19 09:57:41;;;;;;;14.70;8.10;;;32.60;58.60;;;;;;5007994;28;20718;-82
2022/06/19 10:00:11;;;;;;;14.23;7.87;;;32.70;57.00;;;;;;5005096;28;20688;-82
2022/06/19 10:02:46;;;;;;;13.10;7.93;;;32.70;55.60;;;;;;5001057;28;20635;-82
2022/06/19 10:05:22;;;;;;;15.87;8.60;;;32.80;55.50;;;;;;5004819;28;20634;-82
2022/06/19 10:07:53;;;;;;;11.70;9.77;;;32.90;54.60;;;;;;5005604;28;21110;-82
2022/06/19 10:10:27;;;;;;;13.33;8.70;;;33.00;54.80;;;;;;5005745;28;20659;-82
2022/06/19 10:12:56;;;;;;;11.50;9.57;;;33.00;53.80;;;;;;5006519;28;20628;-82
2022/06/19 10:15:30;;;;;;;14.73;9.33;;;33.10;54.20;;;;;;5009105;28;20644;-82
2022/06/19 10:18:00;;;;;;;15.70;8.70;;;33.20;54.30;;;;;;5006453;28;20658;-82
2022/06/19 10:20:36;;;;;;;13.50;9.10;;;33.20;53.90;;;;;;5007269;28;20682;-83
2022/06/19 10:23:13;;;;;;;13.60;8.70;;;33.30;53.30;;;;;;5004045;28;20642;-82
2022/06/19 10:25:51;;;;;;;13.63;8.70;;;33.40;53.80;;;;;;5003261;28;20614;-80
2022/06/19 10:28:33;;;;;;;17.20;10.07;;;33.50;53.00;;;;;;5007347;28;20635;-82
2022/06/19 10:31:10;;;;;;;18.23;10.10;;;33.50;51.90;;;;;;5010441;28;21275;-81
2022/06/19 10:33:49;;;;;;;16.50;10.37;;;33.60;51.90;;;;;;5013916;28;20635;-82
2022/06/19 10:36:28;;;;;;;10.17;8.50;;;33.60;51.00;;;;;;5003715;28;20627;-82
2022/06/19 10:39:09;;;;;;;13.10;9.20;;;33.60;50.40;;;;;;5005264;28;20610;-82
2022/06/19 10:42:04;;;;;;;13.53;8.93;;;33.60;49.80;;;;;;5010100;28;20654;-82
2022/06/19 10:44:59;;;;;;;10.17;8.73;;;33.70;49.90;;;;;;5005666;28;20634;-83
2022/06/19 10:47:40;;;;;;;10.50;8.97;;;33.80;49.30;;;;;;5006045;28;20615;-83
2022/06/19 10:50:16;;;;;;;15.67;9.40;;;33.90;49.00;;;;;;5005760;28;20756;-83
2022/06/19 10:52:53;;;;;;;10.27;8.23;;;34.00;48.60;;;;;;5008018;28;20618;-82
2022/06/19 10:55:27;;;;;;;14.97;8.63;;;34.10;49.30;;;;;;5010596;28;20696;-82
2022/06/19 10:58:08;;;;;;;13.70;10.60;;;34.30;48.40;;;;;;5010770;28;20622;-82
2022/06/19 11:00:35;;;;;;;11.70;9.23;;;34.40;49.60;;;;;;5005541;28;20809;-82
2022/06/19 11:05:58;;;;;;;14.63;8.60;;;34.70;47.80;;;;;;5004459;28;20778;-82
2022/06/19 11:08:31;;;;;;;12.40;8.67;;;34.80;47.60;;;;;;5008404;28;21185;-82
2022/06/19 11:11:01;;;;;;;13.23;8.73;;;34.90;47.20;;;;;;5000569;28;20757;-82
2022/06/19 11:14:12;;;;;;;9.30;8.17;;;35.10;47.40;;;;;;5003599;28;20607;-82
2022/06/19 11:16:54;;;;;;;12.70;9.10;;;35.20;46.60;;;;;;4959827;28;20629;-80
2022/06/19 11:19:42;;;;;;;12.03;8.10;;;35.50;47.00;;;;;;4998875;28;21052;-80
2022/06/19 11:22:27;;;;;;;8.50;7.50;;;35.60;46.30;;;;;;5001066;28;20634;-80
2022/06/19 11:24:58;;;;;;;12.30;7.20;;;35.80;45.30;;;;;;5001949;28;20623;-80
2022/06/19 11:27:27;;;;;;;8.77;6.07;;;36.00;44.10;;;;;;5003655;28;20627;-81
2022/06/19 11:29:58;;;;;;;14.80;8.37;;;36.10;43.00;;;;;;5008061;28;20673;-80
2022/06/19 11:32:27;;;;;;;11.37;7.53;;;36.20;43.50;;;;;;5005769;28;21055;-81
2022/06/19 11:35:02;;;;;;;10.33;6.60;;;36.40;43.20;;;;;;5004741;28;21224;-80
2022/06/19 11:37:32;;;;;;;12.33;6.23;;;36.60;41.50;;;;;;5003600;28;20610;-80
2022/06/19 11:40:16;;;;;;;14.90;6.20;;;36.50;41.40;;;;;;5003976;28;20674;-81
2022/06/19 11:42:49;;;;;;;11.20;5.93;;;36.50;41.00;;;;;;5005898;28;20716;-81
2022/06/19 11:45:27;;;;;;;16.90;6.90;;;36.50;40.30;;;;;;5000236;28;20658;-81
2022/06/19 11:48:03;;;;;;;11.03;5.73;;;36.60;40.60;;;;;;5006674;28;20964;-81
2022/06/19 11:50:43;;;;;;;10.53;6.17;;;36.80;40.90;;;;;;5009017;28;20607;-81
2022/06/19 11:53:21;;;;;;;11.30;6.77;;;36.90;40.30;;;;;;5004190;28;20241;-81
2022/06/19 11:55:51;;;;;;;7.67;6.57;;;37.10;39.60;;;;;;5009797;28;20623;-81
2022/06/19 11:58:28;;;;;;;19.00;7.50;;;37.20;39.30;;;;;;5010299;28;20212;-81
2022/06/19 12:01:06;;;;;;;11.07;6.13;;;37.40;39.40;;;;;;5005837;28;20219;-82
2022/06/19 12:03:41;;;;;;;12.20;7.80;;;37.50;38.70;;;;;;5006368;28;20204;-82
2022/06/19 12:06:10;;;;;;;16.87;7.17;;;37.80;39.80;;;;;;5005636;28;20265;-82
2022/06/19 12:08:41;;;;;;;11.47;7.00;;;38.00;38.90;;;;;;5005502;28;20206;-82
2022/06/19 12:11:10;;;;;;;8.60;6.30;;;38.10;37.90;;;;;;5001714;28;20259;-81
2022/06/19 12:13:41;;;;;;;13.45;7.05;;;38.30;37.60;;;;;;5008491;28;20204;-81
2022/06/19 12:16:18;;;;;;;8.13;6.07;;;38.40;37.50;;;;;;5010398;28;20733;-82
2022/06/19 12:18:45;;;;;;;15.43;6.97;;;38.40;37.70;;;;;;5007892;28;20217;-81
2022/06/19 12:21:21;;;;;;;10.85;6.20;;;38.60;37.20;;;;;;5007428;28;20694;-81
2022/06/19 12:23:57;;;;;;;8.35;6.53;;;38.60;37.00;;;;;;4999295;28;20208;-81
2022/06/19 12:26:34;;;;;;;8.73;6.95;;;38.70;36.90;;;;;;5005811;28;20219;-81
2022/06/19 12:29:07;;;;;;;13.38;6.43;;;38.80;36.80;;;;;;5006786;28;20204;-81
2022/06/19 12:31:39;;;;;;;10.18;6.47;;;39.10;37.40;;;;;;5009371;28;20244;-82
2022/06/19 12:34:16;;;;;;;10.30;6.70;;;39.30;36.30;;;;;;5009910;28;20219;-81
2022/06/19 12:36:43;;;;;;;11.93;6.78;;;39.50;35.50;;;;;;5003139;28;20227;-81
2022/06/19 12:39:20;;;;;;;10.13;6.60;;;39.80;35.90;;;;;;5007886;28;20782;-81
2022/06/19 12:41:56;;;;;;;13.10;7.40;;;40.00;36.20;;;;;;5003359;28;20294;-82
2022/06/19 12:44:41;;;;;;;10.82;6.93;;;40.10;35.60;;;;;;5002109;28;20302;-82
2022/06/19 12:47:18;;;;;;;10.32;5.65;;;40.30;34.80;;;;;;5002847;28;20208;-81
2022/06/19 12:50:11;;;;;;;13.55;7.22;;;40.30;34.50;;;;;;5004102;28;20208;-81
2022/06/19 12:52:47;;;;;;;11.75;6.75;;;40.40;34.30;;;;;;4999894;28;20224;-82
2022/06/19 12:55:36;;;;;;;8.55;6.05;;;40.40;34.50;;;;;;5004905;28;20221;-82
2022/06/19 12:58:48;;;;;;;12.45;6.55;;;40.70;34.80;;;;;;5007122;28;20208;-82
2022/06/19 13:01:23;;;;;;;6.45;5.68;;;40.70;33.50;;;;;;5006419;28;20235;-82
2022/06/19 13:04:06;;;;;;;18.08;7.00;;;41.00;33.50;;;;;;5006456;28;20645;-82
2022/06/19 13:07:01;;;;;;;8.50;5.75;;;41.10;33.10;;;;;;5004087;28;20266;-81
2022/06/19 13:10:03;;;;;;;9.50;6.07;;;41.30;33.80;;;;;;5004535;28;20292;-82